createdAt,value
2023-02-11T00:00:21.971Z,22.27
2023-02-11T00:02:48.737Z,20.65
2023-02-11T00:05:15.874Z,31.60
2023-02-11T00:07:42.629Z,24.35
2023-02-11T00:10:09.621Z,22.08
2023-02-11T00:12:37.604Z,35.78
2023-02-11T00:15:05.610Z,27.13
2023-02-11T00:17:33.241Z,31.02
2023-02-11T00:19:59.933Z,24.73
2023-02-11T00:22:26.608Z,30.33
2023-02-11T00:24:53.381Z,30.75
2023-02-11T00:27:20.332Z,31.70
2023-02-11T00:29:47.132Z,29.77
2023-02-11T00:32:13.835Z,24.60
2023-02-11T00:34:41.728Z,23.27
2023-02-11T00:37:08.352Z,21.33
2023-02-11T00:39:35.067Z,20.92
2023-02-11T00:42:01.782Z,24.15
2023-02-11T00:44:28.531Z,22.83
2023-02-11T00:46:56.278Z,30.17
2023-02-11T00:49:23.020Z,31.77
2023-02-11T00:51:49.770Z,19.55
2023-02-11T00:54:16.572Z,24.77
2023-02-11T00:56:43.319Z,33.38
2023-02-11T00:59:10.064Z,35.13
2023-02-11T01:01:36.980Z,25.63
2023-02-11T01:04:04.806Z,26.92
2023-02-11T01:06:32.626Z,27.77
2023-02-11T01:08:59.339Z,23.75
2023-02-11T01:11:26.176Z,29.00
2023-02-11T01:13:52.925Z,31.90
2023-02-11T01:16:20.558Z,27.80
2023-02-11T01:18:47.621Z,32.25
2023-02-11T01:21:14.862Z,27.60
2023-02-11T01:23:41.766Z,29.75
2023-02-11T01:26:08.469Z,29.38
2023-02-11T01:28:35.377Z,30.45
2023-02-11T01:31:02.755Z,23.67
2023-02-11T01:33:30.034Z,36.95
2023-02-11T01:36:01.611Z,24.27
2023-02-11T01:38:28.286Z,21.73
2023-02-11T01:41:03.816Z,34.47
2023-02-11T01:43:40.773Z,31.58
2023-02-11T01:46:37.466Z,34.20
2023-02-11T01:49:14.832Z,33.38
2023-02-11T01:51:51.541Z,27.65
2023-02-11T01:54:40.997Z,23.02
2023-02-11T01:57:23.023Z,24.92
2023-02-11T02:00:05.005Z,30.65
2023-02-11T02:02:37.771Z,25.23
2023-02-11T02:05:17.349Z,25.88
2023-02-11T02:08:00.539Z,27.92
2023-02-11T02:10:28.668Z,23.02
2023-02-11T02:12:55.803Z,20.13
2023-02-11T02:15:29.026Z,24.00
2023-02-11T02:18:22.561Z,29.30
2023-02-11T02:21:11.241Z,23.80
2023-02-11T02:26:18.891Z,26.85
2023-02-11T02:29:09.587Z,29.05
2023-02-11T02:31:59.122Z,21.85
2023-02-11T02:34:43.106Z,27.40
2023-02-11T02:37:27.287Z,28.25
2023-02-11T02:39:54.837Z,22.65
2023-02-11T02:42:22.376Z,24.35
2023-02-11T02:44:53.362Z,30.38
2023-02-11T02:47:20.057Z,19.75
2023-02-11T02:49:47.020Z,23.33
2023-02-11T02:52:46.006Z,29.45
2023-02-11T02:55:30.976Z,34.83
2023-02-11T02:58:30.778Z,25.42
2023-02-11T03:01:34.356Z,21.48
2023-02-11T03:04:21.105Z,32.00
2023-02-11T03:06:59.855Z,17.90
2023-02-11T03:12:17.167Z,19.98
2023-02-11T03:14:44.956Z,19.00
2023-02-11T03:17:13.329Z,27.08
2023-02-11T03:19:43.270Z,27.98
2023-02-11T03:22:41.468Z,15.63
2023-02-11T03:25:08.763Z,25.58
2023-02-11T03:27:57.802Z,21.58
2023-02-11T03:30:27.682Z,21.73
2023-02-11T03:33:10.625Z,32.85
2023-02-11T03:35:47.620Z,30.13
2023-02-11T03:38:21.752Z,23.05
2023-02-11T03:40:49.788Z,25.25
2023-02-11T03:43:18.792Z,22.77
2023-02-11T03:45:48.314Z,25.20
2023-02-11T03:48:25.570Z,26.13
2023-02-11T03:50:55.068Z,29.35
2023-02-11T03:53:23.203Z,28.27
2023-02-11T03:55:52.293Z,15.70
2023-02-11T03:58:19.466Z,33.25
2023-02-11T04:00:46.237Z,26.52
2023-02-11T04:03:13.658Z,24.55
2023-02-11T04:05:40.884Z,28.73
2023-02-11T04:08:07.800Z,26.23
2023-02-11T04:10:34.972Z,23.95
2023-02-11T04:13:01.622Z,31.35
2023-02-11T04:15:28.454Z,32.72
2023-02-11T04:17:55.192Z,31.52
2023-02-11T04:20:21.850Z,23.98
2023-02-11T04:22:48.658Z,37.47
2023-02-11T04:25:15.887Z,33.10
2023-02-11T04:27:42.625Z,33.75
2023-02-11T04:30:09.901Z,25.50
2023-02-11T04:32:36.551Z,22.77
2023-02-11T04:35:03.599Z,30.40
2023-02-11T04:37:31.330Z,32.90
2023-02-11T04:39:58.103Z,30.00
2023-02-11T04:42:24.837Z,32.40
2023-02-11T04:44:53.942Z,27.77
2023-02-11T04:47:20.668Z,34.88
2023-02-11T04:49:47.417Z,27.85
2023-02-11T04:52:14.073Z,37.55
2023-02-11T04:54:40.924Z,32.63
2023-02-11T04:57:07.621Z,30.40
2023-02-11T04:59:34.373Z,30.83
2023-02-11T05:02:01.071Z,48.13
2023-02-11T05:04:27.785Z,33.08
2023-02-11T05:06:56.053Z,28.70
2023-02-11T05:09:24.439Z,49.38
2023-02-11T05:11:51.113Z,34.90
2023-02-11T05:14:17.803Z,42.17
2023-02-11T05:16:44.653Z,42.30
2023-02-11T05:19:11.451Z,50.88
2023-02-11T05:21:38.157Z,33.72
2023-02-11T05:24:05.305Z,40.45
2023-02-11T05:26:32.596Z,39.35
2023-02-11T05:28:59.384Z,41.83
2023-02-11T05:31:27.212Z,41.17
2023-02-11T05:33:53.884Z,51.40
2023-02-11T05:36:20.592Z,31.77
2023-02-11T05:38:47.294Z,40.55
2023-02-11T05:41:14.685Z,41.65
2023-02-11T05:43:41.423Z,37.80
2023-02-11T05:46:08.222Z,37.03
2023-02-11T05:48:35.055Z,29.08
2023-02-11T05:51:01.769Z,38.95
2023-02-11T05:53:28.482Z,48.97
2023-02-11T05:55:55.215Z,39.17
2023-02-11T05:58:21.977Z,31.15
2023-02-11T06:00:48.723Z,46.83
2023-02-11T06:03:15.565Z,39.53
2023-02-11T06:05:43.952Z,42.80
2023-02-11T06:08:12.054Z,39.53
2023-02-11T06:10:38.940Z,40.15
2023-02-11T06:13:05.727Z,48.70
2023-02-11T06:15:32.930Z,33.13
2023-02-11T06:17:59.612Z,39.72
2023-02-11T06:20:26.369Z,38.60
2023-02-11T06:22:53.158Z,38.58
2023-02-11T06:25:20.000Z,42.00
2023-02-11T06:27:46.764Z,36.33
2023-02-11T06:30:14.086Z,41.92
2023-02-11T06:32:45.514Z,42.00
2023-02-11T06:35:14.387Z,40.20
2023-02-11T06:37:42.323Z,42.85
2023-02-11T06:40:10.090Z,35.90
2023-02-11T06:42:38.765Z,48.35
2023-02-11T06:45:09.565Z,36.17
2023-02-11T06:47:37.917Z,35.90
2023-02-11T06:50:05.864Z,46.10
2023-02-11T06:52:32.892Z,40.37
2023-02-11T06:55:00.056Z,44.65
2023-02-11T06:57:26.824Z,40.60
2023-02-11T06:59:53.576Z,43.72
2023-02-11T07:02:21.151Z,47.13
2023-02-11T07:04:48.024Z,43.72
2023-02-11T07:07:14.711Z,45.83
2023-02-11T07:09:41.698Z,53.78
2023-02-11T07:12:10.290Z,46.90
2023-02-11T07:14:36.965Z,45.63
2023-02-11T07:17:04.863Z,49.03
2023-02-11T07:19:32.092Z,43.77
2023-02-11T07:22:01.573Z,39.88
2023-02-11T07:24:29.990Z,41.20
2023-02-11T07:26:56.707Z,44.28
2023-02-11T07:29:23.588Z,34.65
2023-02-11T07:31:50.416Z,50.92
2023-02-11T07:34:17.367Z,47.40
2023-02-11T07:36:45.081Z,48.17
2023-02-11T07:39:11.988Z,43.88
2023-02-11T07:41:38.793Z,52.15
2023-02-11T07:44:05.832Z,45.58
2023-02-11T07:46:32.832Z,36.10
2023-02-11T07:49:00.064Z,44.08
2023-02-11T07:51:31.044Z,41.58
2023-02-11T07:53:59.397Z,40.55
2023-02-11T07:56:26.270Z,46.42
2023-02-11T07:58:54.207Z,47.97
2023-02-11T08:01:25.471Z,39.90
2023-02-11T08:03:52.906Z,45.28
2023-02-11T08:06:21.800Z,41.83
2023-02-11T08:08:49.251Z,49.78
2023-02-11T08:11:22.385Z,43.92
2023-02-11T08:13:50.194Z,47.22
2023-02-11T08:16:24.481Z,40.05
2023-02-11T08:18:52.669Z,44.90
2023-02-11T08:21:20.238Z,37.20
2023-02-11T08:23:47.330Z,37.53
2023-02-11T08:26:17.688Z,48.05
2023-02-11T08:28:45.928Z,36.78
2023-02-11T08:31:20.021Z,42.90
2023-02-11T08:33:47.291Z,46.13
2023-02-11T08:36:19.578Z,45.30
2023-02-11T08:38:46.900Z,46.20
2023-02-11T08:41:16.945Z,44.45
2023-02-11T08:43:46.027Z,44.50
2023-02-11T08:46:18.447Z,41.28
2023-02-11T08:48:46.876Z,42.45
2023-02-11T08:51:16.309Z,43.55
2023-02-11T08:53:42.992Z,37.33
2023-02-11T08:56:13.425Z,39.00
2023-02-11T08:58:40.642Z,42.97
2023-02-11T09:01:16.296Z,40.50
2023-02-11T09:03:43.108Z,37.85
2023-02-11T09:06:12.395Z,47.67
2023-02-11T09:08:46.303Z,39.72
2023-02-11T09:11:13.811Z,33.78
2023-02-11T09:13:41.953Z,45.78
2023-02-11T09:16:08.992Z,35.47
2023-02-11T09:18:35.666Z,32.83
2023-02-11T09:21:03.950Z,38.83
2023-02-11T09:23:31.262Z,29.80
2023-02-11T09:25:58.005Z,38.03
2023-02-11T09:28:24.707Z,42.47
2023-02-11T09:30:51.803Z,32.85
2023-02-11T09:33:18.707Z,33.33
2023-02-11T09:35:45.425Z,30.13
2023-02-11T09:38:12.184Z,26.50
2023-02-11T09:40:44.061Z,28.52
2023-02-11T09:43:22.617Z,32.92
2023-02-11T09:45:50.650Z,33.17
2023-02-11T09:48:23.029Z,36.30
2023-02-11T09:51:00.092Z,30.27
2023-02-11T09:53:29.578Z,37.78
2023-02-11T09:56:02.089Z,29.70
2023-02-11T09:58:30.527Z,25.30
2023-02-11T10:01:30.604Z,27.33
2023-02-11T10:04:13.613Z,32.72
2023-02-11T10:06:56.224Z,34.38
2023-02-11T10:09:31.752Z,25.63
2023-02-11T10:12:22.492Z,29.52
2023-02-11T10:14:49.207Z,29.42
2023-02-11T10:17:49.991Z,28.10
2023-02-11T10:20:22.706Z,29.23
2023-02-11T10:22:58.473Z,28.80
2023-02-11T10:25:48.322Z,32.28
2023-02-11T10:28:29.312Z,29.67
2023-02-11T10:31:11.421Z,23.45
2023-02-11T10:33:46.680Z,26.00
2023-02-11T10:36:16.318Z,23.17
2023-02-11T10:38:43.847Z,24.15
2023-02-11T10:41:29.386Z,24.35
2023-02-11T10:43:56.380Z,21.23
2023-02-11T10:46:29.627Z,23.13
2023-02-11T10:48:56.500Z,26.60
2023-02-11T10:51:24.221Z,24.45
2023-02-11T10:54:13.848Z,21.15
2023-02-11T10:56:45.823Z,22.70
2023-02-11T10:59:31.440Z,22.20
2023-02-11T11:02:04.803Z,22.25
2023-02-11T11:04:40.092Z,21.48
2023-02-11T11:07:33.860Z,20.33
2023-02-11T11:10:06.592Z,21.00
2023-02-11T11:12:45.485Z,21.45
2023-02-11T11:15:21.807Z,19.70
2023-02-11T11:18:22.585Z,19.15
2023-02-11T11:21:00.517Z,18.85
2023-02-11T11:23:29.797Z,20.20
2023-02-11T11:26:10.066Z,25.20
2023-02-11T11:28:41.414Z,19.23
2023-02-11T11:31:19.375Z,14.95
2023-02-11T11:33:47.305Z,16.02
2023-02-11T11:36:19.799Z,15.93
2023-02-11T11:38:55.632Z,16.40
2023-02-11T11:41:33.962Z,13.75
2023-02-11T11:44:02.452Z,12.77
2023-02-11T11:46:40.065Z,11.57
2023-02-11T11:49:16.048Z,11.77
2023-02-11T11:51:51.369Z,9.65
2023-02-11T11:54:19.870Z,10.55
2023-02-11T11:57:06.988Z,12.50
2023-02-11T11:59:33.774Z,10.70
2023-02-11T12:02:28.564Z,9.73
2023-02-11T12:05:09.577Z,11.05
2023-02-11T12:07:45.034Z,9.70
2023-02-11T12:10:15.193Z,7.50
2023-02-11T12:13:00.916Z,8.45
2023-02-11T12:15:46.764Z,9.00
2023-02-11T12:18:26.251Z,8.05
2023-02-11T12:20:53.553Z,8.60
2023-02-11T12:23:20.727Z,10.63
2023-02-11T12:26:11.544Z,9.65
2023-02-11T12:28:58.932Z,8.30
2023-02-11T12:31:49.004Z,7.68
2023-02-11T12:34:24.708Z,9.02
2023-02-11T12:37:04.239Z,7.85
2023-02-11T12:39:40.271Z,8.20
2023-02-11T12:43:02.464Z,8.07
2023-02-11T12:45:40.669Z,8.23
2023-02-11T12:48:30.884Z,8.52
2023-02-11T12:51:22.408Z,7.00
2023-02-11T12:54:11.953Z,6.72
2023-02-11T12:57:02.116Z,7.82
2023-02-11T12:59:29.005Z,7.10
2023-02-11T13:01:56.974Z,7.88
2023-02-11T13:04:38.988Z,7.80
2023-02-11T13:07:37.567Z,8.77
2023-02-11T13:10:18.589Z,8.23
2023-02-11T13:13:06.754Z,9.60
2023-02-11T13:15:33.704Z,8.68
2023-02-11T13:18:32.257Z,8.55
2023-02-11T13:21:27.755Z,7.45
2023-02-11T13:24:13.680Z,9.82
2023-02-11T13:26:48.277Z,7.03
2023-02-11T13:29:32.426Z,8.27
2023-02-11T13:32:17.592Z,7.57
2023-02-11T13:34:45.343Z,8.70
2023-02-11T13:37:36.301Z,9.50
2023-02-11T13:40:07.828Z,7.07
2023-02-11T13:43:06.962Z,8.38
2023-02-11T13:45:46.586Z,6.85
2023-02-11T13:48:16.621Z,7.20
2023-02-11T13:50:53.507Z,8.93
2023-02-11T13:53:21.147Z,10.40
2023-02-11T13:55:52.408Z,8.18
2023-02-11T13:58:39.944Z,7.30
2023-02-11T14:01:07.556Z,8.37
2023-02-11T14:03:55.785Z,8.38
2023-02-11T14:07:05.333Z,6.70
2023-02-11T14:09:40.067Z,8.13
2023-02-11T14:12:30.608Z,11.82
2023-02-11T14:15:16.903Z,7.80
2023-02-11T14:17:43.675Z,8.15
2023-02-11T14:20:34.544Z,7.25
2023-02-11T14:23:01.348Z,9.82
2023-02-11T14:25:29.122Z,7.15
2023-02-11T14:28:08.360Z,8.83
2023-02-11T14:31:18.641Z,7.35
2023-02-11T14:34:03.943Z,6.55
2023-02-11T14:36:51.789Z,7.43
2023-02-11T14:39:37.291Z,8.25
2023-02-11T14:42:04.586Z,7.10
2023-02-11T14:44:33.669Z,7.03
2023-02-11T14:47:00.715Z,6.45
2023-02-11T14:49:38.103Z,6.78
2023-02-11T14:52:35.230Z,8.35
2023-02-11T14:55:29.779Z,8.43
2023-02-11T14:58:12.221Z,6.60
2023-02-11T15:00:52.349Z,7.60
2023-02-11T15:03:37.002Z,7.53
2023-02-11T15:06:18.757Z,8.05
2023-02-11T15:08:53.363Z,8.98
2023-02-11T15:11:23.652Z,14.02
2023-02-11T15:13:53.075Z,6.95
2023-02-11T15:16:27.046Z,6.03
2023-02-11T15:18:56.774Z,6.43
2023-02-11T15:21:29.946Z,8.80
2023-02-11T15:24:02.029Z,6.88
2023-02-11T15:26:30.735Z,6.72
2023-02-11T15:31:27.062Z,6.55
2023-02-11T15:33:54.571Z,6.55
2023-02-11T15:36:29.516Z,9.50
2023-02-11T15:39:35.212Z,7.07
2023-02-11T15:42:40.815Z,7.78
2023-02-11T15:45:14.049Z,9.23
2023-02-11T15:47:52.753Z,12.32
2023-02-11T15:50:26.200Z,7.30
2023-02-11T15:52:54.958Z,6.53
2023-02-11T15:57:54.426Z,9.45
2023-02-11T16:00:24.116Z,11.15
2023-02-11T16:02:51.579Z,7.65
2023-02-11T16:05:38.152Z,6.68
2023-02-11T16:08:25.456Z,6.55
2023-02-11T16:11:03.195Z,8.82
2023-02-11T16:13:33.672Z,9.48
2023-02-11T16:16:15.527Z,7.82
2023-02-11T16:19:03.435Z,9.15
2023-02-11T16:21:39.067Z,12.63
2023-02-11T16:24:08.094Z,8.30
2023-02-11T16:29:16.581Z,10.52
2023-02-11T16:31:46.318Z,8.48
2023-02-11T16:34:19.472Z,6.93
2023-02-11T16:36:47.284Z,9.13
2023-02-11T16:39:14.635Z,11.93
2023-02-11T16:41:41.334Z,5.82
2023-02-11T16:44:08.037Z,7.25
2023-02-11T16:46:36.441Z,8.23
2023-02-11T16:49:21.773Z,6.82
2023-02-11T16:51:56.523Z,9.15
2023-02-11T16:54:23.920Z,10.60
2023-02-11T16:56:50.988Z,8.85
2023-02-11T16:59:17.781Z,10.02
2023-02-11T17:01:45.677Z,9.13
2023-02-11T17:04:25.227Z,8.13
2023-02-11T17:06:52.245Z,11.00
2023-02-11T17:09:26.283Z,9.63
2023-02-11T17:11:53.866Z,7.70
2023-02-11T17:14:20.633Z,7.22
2023-02-11T17:16:48.082Z,7.78
2023-02-11T17:19:17.321Z,6.38
2023-02-11T17:21:45.711Z,8.30
2023-02-11T17:24:14.221Z,6.20
2023-02-11T17:26:42.108Z,9.27
2023-02-11T17:29:10.980Z,7.07
2023-02-11T17:31:39.623Z,7.25
2023-02-11T17:36:33.484Z,7.22
2023-02-11T17:39:01.153Z,7.78
2023-02-11T17:41:28.356Z,9.35
2023-02-11T17:43:58.685Z,10.25
2023-02-11T17:46:25.752Z,7.82
2023-02-11T17:48:54.135Z,12.63
2023-02-11T17:51:23.987Z,22.60
2023-02-11T17:53:51.386Z,11.65
2023-02-11T17:56:18.453Z,12.52
2023-02-11T17:58:45.604Z,13.32
2023-02-11T18:01:12.424Z,12.77
2023-02-11T18:03:39.128Z,12.65
2023-02-11T18:06:07.148Z,10.65
2023-02-11T18:08:36.104Z,10.57
2023-02-11T18:11:03.639Z,11.02
2023-02-11T18:13:30.435Z,12.35
2023-02-11T18:16:03.479Z,12.70
2023-02-11T18:18:30.755Z,12.60
2023-02-11T18:20:59.488Z,12.05
2023-02-11T18:25:54.041Z,10.85
2023-02-11T18:28:21.100Z,14.13
2023-02-11T18:30:47.944Z,10.07
2023-02-11T18:33:14.716Z,10.40
2023-02-11T18:35:42.317Z,11.48
2023-02-11T18:38:09.875Z,12.50
2023-02-11T18:40:40.372Z,12.18
2023-02-11T18:43:07.488Z,11.38
2023-02-11T18:45:34.180Z,14.30
2023-02-11T18:48:03.592Z,11.93
2023-02-11T18:50:30.290Z,10.93
2023-02-11T18:52:57.021Z,11.45
2023-02-11T18:55:25.853Z,15.40
2023-02-11T18:57:52.954Z,11.52
2023-02-11T19:00:20.816Z,12.68
2023-02-11T19:02:47.616Z,13.40
2023-02-11T19:05:14.381Z,12.02
2023-02-11T19:07:41.149Z,11.80
2023-02-11T19:10:08.481Z,12.50
2023-02-11T19:12:35.192Z,11.05
2023-02-11T19:15:01.964Z,11.70
2023-02-11T19:17:28.666Z,11.40
2023-02-11T19:19:55.363Z,12.32
2023-02-11T19:22:22.120Z,10.43
2023-02-11T19:24:49.046Z,11.18
2023-02-11T19:27:15.708Z,13.57
2023-02-11T19:29:42.525Z,10.25
2023-02-11T19:32:10.939Z,12.98
2023-02-11T19:34:41.510Z,11.20
2023-02-11T19:37:12.120Z,13.88
2023-02-11T19:39:40.262Z,11.10
2023-02-11T19:42:07.062Z,12.45
2023-02-11T19:44:33.772Z,10.93
2023-02-11T19:47:01.171Z,15.88
2023-02-11T19:49:28.335Z,10.73
2023-02-11T19:51:59.407Z,11.90
2023-02-11T19:54:28.999Z,11.05
2023-02-11T19:56:56.557Z,11.75
2023-02-11T19:59:23.527Z,11.55
2023-02-11T20:01:50.540Z,10.60
2023-02-11T20:04:17.379Z,13.15
2023-02-11T20:06:45.170Z,13.95
2023-02-11T20:09:14.116Z,11.17
2023-02-11T20:11:41.480Z,11.90
2023-02-11T20:14:11.394Z,11.85
2023-02-11T20:16:48.160Z,12.57
2023-02-11T20:19:21.458Z,12.45
2023-02-11T20:21:51.211Z,12.07
2023-02-11T20:24:19.070Z,13.57
2023-02-11T20:26:48.235Z,17.10
2023-02-11T20:29:17.340Z,18.40
2023-02-11T20:31:44.393Z,14.50
2023-02-11T20:34:12.224Z,14.73
2023-02-11T20:36:40.223Z,15.32
2023-02-11T20:39:07.807Z,16.25
2023-02-11T20:41:38.672Z,15.82
2023-02-11T20:44:07.474Z,21.05
2023-02-11T20:49:02.066Z,15.00
2023-02-11T20:51:31.569Z,33.50
2023-02-11T20:53:59.166Z,25.85
2023-02-11T20:56:28.958Z,19.23
2023-02-11T20:58:58.309Z,19.70
2023-02-11T21:01:28.211Z,15.35
2023-02-11T21:03:57.677Z,16.00
2023-02-11T21:06:27.112Z,15.60
2023-02-11T21:08:54.238Z,14.02
2023-02-11T21:11:20.986Z,13.88
2023-02-11T21:13:48.673Z,16.40
2023-02-11T21:16:22.669Z,15.13
2023-02-11T21:18:50.637Z,16.90
2023-02-11T21:21:18.583Z,21.00
2023-02-11T21:23:45.974Z,17.35
2023-02-11T21:26:16.942Z,16.48
2023-02-11T21:28:44.190Z,17.45
2023-02-11T21:31:22.524Z,15.02
2023-02-11T21:33:50.774Z,15.60
2023-02-11T21:36:17.869Z,16.17
2023-02-11T21:38:44.717Z,14.57
2023-02-11T21:41:12.038Z,16.05
2023-02-11T21:43:38.830Z,14.27
2023-02-11T21:46:10.797Z,13.60
2023-02-11T21:48:38.126Z,14.57
2023-02-11T21:51:07.149Z,14.18
2023-02-11T21:53:34.388Z,16.35
2023-02-11T21:56:12.881Z,16.10
2023-02-11T21:58:39.736Z,14.18
2023-02-11T22:01:19.803Z,14.18
2023-02-11T22:03:54.733Z,14.55
2023-02-11T22:06:30.924Z,17.30
2023-02-11T22:09:01.857Z,15.95
2023-02-11T22:11:28.588Z,15.98
2023-02-11T22:13:57.746Z,14.18
2023-02-11T22:16:26.143Z,13.98
2023-02-11T22:18:53.592Z,13.32
2023-02-11T22:21:22.744Z,16.08
2023-02-11T22:23:50.573Z,14.68
2023-02-11T22:26:20.197Z,16.50
2023-02-11T22:28:48.113Z,16.08
2023-02-11T22:31:21.750Z,15.25
2023-02-11T22:33:48.662Z,17.45
2023-02-11T22:36:24.067Z,14.95
2023-02-11T22:38:50.932Z,19.08
2023-02-11T22:41:18.769Z,20.23
2023-02-11T22:43:45.716Z,17.80
2023-02-11T22:46:14.984Z,16.35
2023-02-11T22:48:42.355Z,14.55
2023-02-11T22:51:15.797Z,15.93
2023-02-11T22:53:43.683Z,14.32
2023-02-11T22:56:15.353Z,16.57
2023-02-11T22:58:43.127Z,15.70
2023-02-11T23:01:10.069Z,16.50
2023-02-11T23:03:36.888Z,31.13
2023-02-11T23:06:04.468Z,22.35
2023-02-11T23:08:31.657Z,20.58
2023-02-11T23:11:10.735Z,19.88
2023-02-11T23:13:39.742Z,25.05
2023-02-11T23:16:15.034Z,19.75
2023-02-11T23:18:43.325Z,15.57
2023-02-11T23:21:19.333Z,15.85
2023-02-11T23:23:46.212Z,16.00
2023-02-11T23:26:15.256Z,15.48
2023-02-11T23:28:42.141Z,18.98
2023-02-11T23:31:25.645Z,17.50
2023-02-11T23:33:52.784Z,17.20
2023-02-11T23:36:20.993Z,26.67
2023-02-11T23:38:48.076Z,16.98
2023-02-11T23:41:15.819Z,16.63
2023-02-11T23:43:42.944Z,17.27
2023-02-11T23:46:10.483Z,16.42
2023-02-11T23:48:37.779Z,16.25
2023-02-11T23:51:06.448Z,15.90
2023-02-11T23:53:33.133Z,15.13
2023-02-11T23:55:59.819Z,18.27
2023-02-11T23:58:26.550Z,17.10
